Welcome to La Porte Aviation Services!

An aviation adventure awaits

Current Weather Conditions

Available data for KPPO from the past 2 hours
LA PORTE, IN
Metar
KPPO 240855Z AUTO 34006KT 10SM SCT030 OVC036 05/01 A3023 RMK AO2 T00470014

08:55 UTC

Wind: 340° 6kt

Visibility: 10 SM

Sky: SCT 3000 ft

Temp: 5 deg C / 41 deg F

Dewpoint: 1 deg C / 33.8 deg F

Pressure: 30.23 inHg

Connect with us on Facebook!

Facebook By Weblizar Powered By Weblizar